createdAt,value
2022-12-11T00:01:16.270Z,10.94
2022-12-11T00:03:44.728Z,10.96
2022-12-11T00:06:15.132Z,10.95
2022-12-11T00:08:43.875Z,10.94
2022-12-11T00:11:17.353Z,10.92
2022-12-11T00:13:45.685Z,10.96
2022-12-11T00:16:14.041Z,11.06
2022-12-11T00:18:42.316Z,11.07
2022-12-11T00:21:14.700Z,11.09
2022-12-11T00:23:43.127Z,11.07
2022-12-11T00:26:15.788Z,11.05
2022-12-11T00:28:45.046Z,11.01
2022-12-11T00:31:15.801Z,10.97
2022-12-11T00:33:44.432Z,10.98
2022-12-11T00:36:14.025Z,11.04
2022-12-11T00:38:43.027Z,11.07
2022-12-11T00:41:11.537Z,11.07
2022-12-11T00:43:42.640Z,11.09
2022-12-11T00:46:11.076Z,11.01
2022-12-11T00:48:39.985Z,10.99
2022-12-11T00:51:08.560Z,11.03
2022-12-11T00:53:37.234Z,11.02
2022-12-11T00:56:11.793Z,11.01
2022-12-11T00:58:41.438Z,11.05
2022-12-11T01:01:11.238Z,11.07
2022-12-11T01:03:39.861Z,11.07
2022-12-11T01:06:15.155Z,11.08
2022-12-11T01:08:43.531Z,11.08
2022-12-11T01:11:12.749Z,11.09
2022-12-11T01:13:43.250Z,11.12
2022-12-11T01:16:14.054Z,11.13
2022-12-11T01:18:42.279Z,11.14
2022-12-11T01:21:13.378Z,11.16
2022-12-11T01:23:41.991Z,11.15
2022-12-11T01:26:11.786Z,11.16
2022-12-11T01:28:43.389Z,11.19
2022-12-11T01:31:12.110Z,11.20
2022-12-11T01:33:40.857Z,11.17
2022-12-11T01:36:11.301Z,11.19
2022-12-11T01:38:39.424Z,11.19
2022-12-11T01:41:07.569Z,11.17
2022-12-11T01:43:35.597Z,11.15
2022-12-11T01:46:05.123Z,11.15
2022-12-11T01:48:37.935Z,11.20
2022-12-11T01:51:08.809Z,11.19
2022-12-11T01:53:41.523Z,11.20
2022-12-11T01:56:10.337Z,11.15
2022-12-11T01:58:43.153Z,11.17
2022-12-11T02:01:15.868Z,11.10
2022-12-11T02:03:44.826Z,11.07
2022-12-11T02:06:35.184Z,11.07
2022-12-11T02:09:03.861Z,11.12
2022-12-11T02:11:40.943Z,11.11
2022-12-11T02:14:17.427Z,11.12
2022-12-11T02:16:51.936Z,11.15
2022-12-11T02:19:49.658Z,11.12
2022-12-11T02:22:29.130Z,11.16
2022-12-11T02:25:09.484Z,11.23
2022-12-11T02:27:44.409Z,11.31
2022-12-11T02:30:16.633Z,11.38
2022-12-11T02:32:48.690Z,11.41
2022-12-11T02:35:20.996Z,11.44
2022-12-11T02:37:52.641Z,11.49
2022-12-11T02:40:24.243Z,11.53
2022-12-11T02:42:53.448Z,11.58
2022-12-11T02:45:25.545Z,11.59
2022-12-11T02:47:54.056Z,11.62
2022-12-11T02:50:24.578Z,11.64
2022-12-11T02:52:56.915Z,11.60
2022-12-11T02:55:27.523Z,11.63
2022-12-11T02:58:04.543Z,11.76
2022-12-11T03:00:34.265Z,11.90
2022-12-11T03:03:03.387Z,12.09
2022-12-11T03:05:31.935Z,12.25
2022-12-11T03:08:00.012Z,12.31
2022-12-11T03:10:27.981Z,12.34
2022-12-11T03:12:58.316Z,12.33
2022-12-11T03:15:39.367Z,12.32
2022-12-11T03:18:15.344Z,12.35
2022-12-11T03:20:47.515Z,12.39
2022-12-11T03:23:22.438Z,12.43
2022-12-11T03:25:53.710Z,12.42
2022-12-11T03:28:28.440Z,12.48
2022-12-11T03:30:59.779Z,12.54
2022-12-11T03:33:32.593Z,12.59
2022-12-11T03:36:05.101Z,12.63
2022-12-11T03:38:40.235Z,12.67
2022-12-11T03:41:10.520Z,12.69
2022-12-11T03:43:39.648Z,12.73
2022-12-11T03:46:10.470Z,12.72
2022-12-11T03:48:43.688Z,12.78
2022-12-11T03:51:11.746Z,12.84
2022-12-11T03:53:40.579Z,12.87
2022-12-11T03:56:11.956Z,12.90
2022-12-11T03:58:39.930Z,12.93
2022-12-11T04:01:12.029Z,12.93
2022-12-11T04:03:40.585Z,12.94
2022-12-11T04:06:10.321Z,12.93
2022-12-11T04:08:38.628Z,12.91
2022-12-11T04:11:24.449Z,12.90
2022-12-11T04:14:12.484Z,12.90
2022-12-11T04:16:40.873Z,12.90
2022-12-11T04:19:27.279Z,12.87
2022-12-11T04:22:12.660Z,12.86
2022-12-11T04:24:40.486Z,12.85
2022-12-11T04:27:08.863Z,12.87
2022-12-11T04:29:37.020Z,12.78
2022-12-11T04:32:06.652Z,12.77
2022-12-11T04:37:38.069Z,12.70
2022-12-11T04:40:07.736Z,12.56
2022-12-11T04:42:35.751Z,12.35
2022-12-11T04:45:04.466Z,12.12
2022-12-11T04:47:33.949Z,11.96
2022-12-11T04:50:01.975Z,11.80
2022-12-11T04:52:30.086Z,11.72
2022-12-11T04:54:58.274Z,11.65
2022-12-11T04:57:26.428Z,11.64
2022-12-11T04:59:54.454Z,11.67
2022-12-11T05:02:22.546Z,11.63
2022-12-11T05:04:52.026Z,11.63
2022-12-11T05:07:20.092Z,11.63
2022-12-11T05:09:48.131Z,11.65
2022-12-11T05:12:16.098Z,11.60
2022-12-11T05:14:44.672Z,11.57
2022-12-11T05:17:12.862Z,11.49
2022-12-11T05:19:40.940Z,11.43
2022-12-11T05:22:10.419Z,11.40
2022-12-11T05:24:38.410Z,11.40
2022-12-11T05:27:06.395Z,11.39
2022-12-11T05:29:34.357Z,11.34
2022-12-11T05:32:02.293Z,11.30
2022-12-11T05:34:30.335Z,11.26
2022-12-11T05:36:58.357Z,11.24
2022-12-11T05:39:27.782Z,11.24
2022-12-11T05:41:55.829Z,11.25
2022-12-11T05:44:23.881Z,11.22
2022-12-11T05:46:51.897Z,11.25
2022-12-11T05:49:20.254Z,11.29
2022-12-11T05:51:48.783Z,11.29
2022-12-11T05:54:16.984Z,11.31
2022-12-11T05:56:46.350Z,11.34
2022-12-11T05:59:14.258Z,11.38
2022-12-11T06:01:44.430Z,11.43
2022-12-11T06:04:13.963Z,11.45
2022-12-11T06:06:43.767Z,11.49
2022-12-11T06:09:15.272Z,11.50
2022-12-11T06:11:43.739Z,11.51
2022-12-11T06:14:14.568Z,11.49
2022-12-11T06:16:42.641Z,11.51
2022-12-11T06:19:15.541Z,11.52
2022-12-11T06:21:43.977Z,11.48
2022-12-11T06:24:14.180Z,11.48
2022-12-11T06:26:42.237Z,11.48
2022-12-11T06:29:12.949Z,11.48
2022-12-11T06:31:43.078Z,11.49
2022-12-11T06:34:13.811Z,11.46
2022-12-11T06:36:42.071Z,11.44
2022-12-11T06:39:10.073Z,11.42
2022-12-11T06:41:38.200Z,11.41
2022-12-11T06:44:06.146Z,11.37
2022-12-11T06:46:34.087Z,11.32
2022-12-11T06:49:03.434Z,11.18
2022-12-11T06:51:32.819Z,11.18
2022-12-11T06:54:00.783Z,11.06
2022-12-11T06:56:28.747Z,10.90
2022-12-11T06:58:57.158Z,10.86
2022-12-11T07:01:27.438Z,10.82
2022-12-11T07:03:56.450Z,10.73
2022-12-11T07:06:27.003Z,10.61
2022-12-11T07:08:54.958Z,10.57
2022-12-11T07:11:23.054Z,10.47
2022-12-11T07:13:51.040Z,10.37
2022-12-11T07:16:19.803Z,10.19
2022-12-11T07:18:50.031Z,10.03
2022-12-11T07:21:18.406Z,9.93
2022-12-11T07:23:48.725Z,9.78
2022-12-11T07:26:19.094Z,9.67
2022-12-11T07:28:47.526Z,9.56
2022-12-11T07:31:17.471Z,9.40
2022-12-11T07:33:45.961Z,9.30
2022-12-11T07:36:15.282Z,9.24
2022-12-11T07:38:43.345Z,9.18
2022-12-11T07:41:15.847Z,9.07
2022-12-11T07:43:45.449Z,8.98
2022-12-11T07:46:16.409Z,8.97
2022-12-11T07:48:45.963Z,8.93
2022-12-11T07:51:16.547Z,8.76
2022-12-11T07:53:45.771Z,8.66
2022-12-11T07:56:15.954Z,8.60
2022-12-11T07:58:44.335Z,8.55
2022-12-11T08:01:13.011Z,8.56
2022-12-11T08:03:41.463Z,8.53
2022-12-11T08:06:10.155Z,8.61
2022-12-11T08:08:40.406Z,8.59
2022-12-11T08:11:10.852Z,8.59
2022-12-11T08:13:43.440Z,8.61
2022-12-11T08:16:13.569Z,8.61
2022-12-11T08:18:45.006Z,8.62
2022-12-11T08:21:15.455Z,8.68
2022-12-11T08:23:43.427Z,8.71
2022-12-11T08:26:14.013Z,8.79
2022-12-11T08:28:43.517Z,8.87
2022-12-11T08:31:13.926Z,8.90
2022-12-11T08:33:42.913Z,9.10
2022-12-11T08:36:14.403Z,9.18
2022-12-11T08:38:42.968Z,9.19
2022-12-11T08:41:12.193Z,9.29
2022-12-11T08:43:40.528Z,9.40
2022-12-11T08:46:10.488Z,9.49
2022-12-11T08:48:40.260Z,9.54
2022-12-11T08:51:10.274Z,9.60
2022-12-11T09:33:28.828Z,8.86
2022-12-11T09:36:00.338Z,8.90
2022-12-11T09:38:28.653Z,8.85
2022-12-11T09:40:57.008Z,8.90
2022-12-11T09:43:39.243Z,8.75
2022-12-11T09:46:12.181Z,8.75
2022-12-11T09:48:43.840Z,8.81
2022-12-11T09:51:18.807Z,8.90
2022-12-11T09:53:46.686Z,8.81
2022-12-11T09:56:23.095Z,8.83
2022-12-11T09:59:07.594Z,8.89
2022-12-11T10:01:44.545Z,8.88
2022-12-11T10:04:38.842Z,8.82
2022-12-11T10:07:13.465Z,8.88
2022-12-11T10:26:30.991Z,8.72
2022-12-11T10:29:01.678Z,8.87
2022-12-11T11:20:17.367Z,8.75
2022-12-11T11:22:48.230Z,8.96
2022-12-11T11:59:18.600Z,8.80
2022-12-11T12:01:46.596Z,9.10
2022-12-11T12:04:15.440Z,9.30
2022-12-11T12:06:58.964Z,9.51
2022-12-11T12:09:40.345Z,9.67
2022-12-11T12:12:24.677Z,9.67
2022-12-11T12:15:11.155Z,9.70
2022-12-11T12:17:55.483Z,9.86
2022-12-11T12:20:32.192Z,9.94
2022-12-11T12:23:12.268Z,10.00
2022-12-11T12:25:45.275Z,10.07
2022-12-11T12:28:23.587Z,10.10
2022-12-11T12:31:06.031Z,10.12
2022-12-11T12:33:45.931Z,10.15
2022-12-11T12:36:23.863Z,10.21
2022-12-11T12:38:56.387Z,10.31
2022-12-11T12:41:35.117Z,10.30
2022-12-11T12:44:23.264Z,10.08
2022-12-11T12:46:58.492Z,10.02
2022-12-11T12:49:41.278Z,9.93
2022-12-11T12:52:16.424Z,9.86
2022-12-11T12:55:07.640Z,9.85
2022-12-11T12:57:38.308Z,9.89
2022-12-11T13:00:13.256Z,9.93
2022-12-11T13:02:51.395Z,9.92
2022-12-11T13:05:24.436Z,9.85
2022-12-11T13:07:55.673Z,9.70
2022-12-11T13:10:27.568Z,9.56
2022-12-11T13:12:56.102Z,9.35
2022-12-11T13:15:40.845Z,9.16
2022-12-11T13:18:36.445Z,8.98
2022-12-11T13:21:25.057Z,8.90
2022-12-11T13:23:53.065Z,8.83
2022-12-11T13:26:30.456Z,8.76
2022-12-11T13:29:01.726Z,8.75
2022-12-11T13:31:35.010Z,8.67
2022-12-11T13:34:18.483Z,8.55
2022-12-11T13:36:51.081Z,8.44
2022-12-11T13:39:23.831Z,8.36
2022-12-11T13:41:55.421Z,8.29
2022-12-11T13:44:27.705Z,8.28
2022-12-11T13:46:58.826Z,8.23
2022-12-11T13:49:34.595Z,8.21
2022-12-11T13:52:02.687Z,8.21
2022-12-11T13:54:32.465Z,8.18
2022-12-11T13:57:03.565Z,8.12
2022-12-11T13:59:35.439Z,7.97
2022-12-11T14:02:13.979Z,7.92
2022-12-11T14:04:43.999Z,7.82
2022-12-11T14:07:12.882Z,7.76
2022-12-11T14:09:45.376Z,7.67
2022-12-11T14:12:21.752Z,7.57
2022-12-11T14:14:52.563Z,7.49
2022-12-11T14:17:25.840Z,7.39
2022-12-11T14:19:57.367Z,7.27
2022-12-11T14:22:27.474Z,7.15
2022-12-11T14:24:57.679Z,7.10
2022-12-11T14:27:27.604Z,7.00
2022-12-11T14:29:55.858Z,6.95
2022-12-11T14:32:32.912Z,6.93
2022-12-11T14:35:05.976Z,6.89
2022-12-11T14:37:37.472Z,6.86
2022-12-11T14:40:09.265Z,6.89
2022-12-11T14:42:42.138Z,6.91
2022-12-11T14:45:20.256Z,6.91
2022-12-11T14:47:48.473Z,6.89
2022-12-11T14:50:22.433Z,6.87
2022-12-11T14:52:54.704Z,6.79
2022-12-11T14:55:25.872Z,6.80
2022-12-11T14:57:58.093Z,6.74
2022-12-11T15:00:29.175Z,6.61
2022-12-11T15:03:03.223Z,6.52
2022-12-11T15:05:40.340Z,6.46
2022-12-11T15:08:24.788Z,6.36
2022-12-11T15:11:05.216Z,6.32
2022-12-11T15:13:34.963Z,6.29
2022-12-11T15:16:04.668Z,6.28
2022-12-11T15:18:35.088Z,6.25
2022-12-11T15:21:09.440Z,6.21
2022-12-11T15:23:50.280Z,6.19
2022-12-11T15:26:18.537Z,6.16
2022-12-11T15:28:47.041Z,6.14
2022-12-11T15:31:26.142Z,6.08
2022-12-11T15:33:54.568Z,6.09
2022-12-11T15:36:27.147Z,6.07
2022-12-11T15:38:57.363Z,6.03
2022-12-11T15:41:26.369Z,6.01
2022-12-11T15:43:58.835Z,5.99
2022-12-11T15:46:27.686Z,5.97
2022-12-11T15:48:57.683Z,5.92
2022-12-11T15:51:27.694Z,5.91
2022-12-11T15:53:55.651Z,5.91
2022-12-11T15:56:23.732Z,5.95
2022-12-11T15:58:51.730Z,5.96
2022-12-11T16:01:19.754Z,5.97
2022-12-11T16:03:50.323Z,5.96
2022-12-11T16:06:18.276Z,6.00
2022-12-11T16:08:47.671Z,5.97
2022-12-11T16:11:15.581Z,5.97
2022-12-11T16:13:43.514Z,5.98
2022-12-11T16:16:12.271Z,5.97
2022-12-11T16:18:40.316Z,5.97
2022-12-11T16:21:08.453Z,5.96
2022-12-11T16:23:36.420Z,5.99
2022-12-11T16:26:10.089Z,6.01
2022-12-11T16:28:38.069Z,6.11
2022-12-11T16:31:11.718Z,6.19
2022-12-11T16:33:39.937Z,6.26
2022-12-11T16:36:14.823Z,6.26
2022-12-11T16:38:48.501Z,6.25
2022-12-11T16:41:23.931Z,6.27
2022-12-11T16:43:52.023Z,6.31
2022-12-11T16:46:20.462Z,6.35
2022-12-11T16:48:48.761Z,6.34
2022-12-11T16:51:17.169Z,6.34
2022-12-11T16:53:45.363Z,6.35
2022-12-11T16:56:13.279Z,6.29
2022-12-11T16:58:42.596Z,6.28
2022-12-11T17:01:12.251Z,6.24
2022-12-11T17:03:40.682Z,6.18
2022-12-11T17:06:10.187Z,6.07
2022-12-11T17:08:38.534Z,6.01
2022-12-11T17:11:07.418Z,5.96
2022-12-11T17:13:36.491Z,5.93
2022-12-11T17:16:07.857Z,5.92
2022-12-11T17:18:35.846Z,5.91
2022-12-11T17:21:07.047Z,5.85
2022-12-11T17:23:38.347Z,5.80
2022-12-11T17:26:08.746Z,5.78
2022-12-11T17:28:38.106Z,5.78
2022-12-11T17:31:09.030Z,5.82
2022-12-11T17:33:37.156Z,5.87
2022-12-11T17:36:07.203Z,5.89
2022-12-11T17:38:35.807Z,5.87
2022-12-11T17:41:07.465Z,5.90
2022-12-11T17:43:35.780Z,5.88
2022-12-11T17:46:05.161Z,5.85
2022-12-11T17:48:35.112Z,5.83
2022-12-11T17:51:05.293Z,5.85
2022-12-11T17:53:34.042Z,5.87
2022-12-11T17:56:02.413Z,5.85
2022-12-11T17:58:30.895Z,5.77
2022-12-11T18:00:59.588Z,5.75
2022-12-11T18:03:29.240Z,5.66
2022-12-11T18:06:04.485Z,5.62
2022-12-11T18:08:32.576Z,5.61
2022-12-11T18:11:07.398Z,5.58
2022-12-11T18:13:35.750Z,5.59
2022-12-11T18:16:06.667Z,5.58
2022-12-11T18:18:35.548Z,5.50
2022-12-11T18:21:05.508Z,5.54
2022-12-11T18:23:33.867Z,5.55
2022-12-11T18:26:01.812Z,5.53
2022-12-11T18:28:31.994Z,5.58
2022-12-11T18:31:01.871Z,5.56
2022-12-11T18:33:30.707Z,5.61
2022-12-11T18:35:58.700Z,5.62
2022-12-11T18:38:28.236Z,5.61
2022-12-11T18:40:56.137Z,5.61
2022-12-11T18:43:24.068Z,5.55
2022-12-11T18:45:52.085Z,5.54
2022-12-11T18:48:20.011Z,5.57
2022-12-11T18:50:49.704Z,5.57
2022-12-11T18:53:17.922Z,5.57
2022-12-11T18:55:49.396Z,5.57
2022-12-11T18:58:19.484Z,5.59
2022-12-11T19:00:47.689Z,5.56
2022-12-11T19:03:15.636Z,5.53
2022-12-11T19:05:44.031Z,5.55
2022-12-11T19:08:13.897Z,5.58
2022-12-11T19:10:43.375Z,5.63
2022-12-11T19:13:13.310Z,5.59
2022-12-11T19:15:42.468Z,5.51
2022-12-11T19:18:11.139Z,5.49
2022-12-11T19:20:49.338Z,5.49
2022-12-11T19:23:19.138Z,5.51
2022-12-11T19:25:49.063Z,5.51
2022-12-11T19:28:18.952Z,5.50
2022-12-11T19:30:48.820Z,5.51
2022-12-11T19:33:17.460Z,5.52
2022-12-11T19:35:45.772Z,5.51
2022-12-11T19:38:13.907Z,5.48
2022-12-11T19:40:43.080Z,5.40
2022-12-11T19:43:11.758Z,5.37
2022-12-11T19:45:41.506Z,5.32
2022-12-11T19:48:09.512Z,5.29
2022-12-11T19:50:37.584Z,5.25
2022-12-11T19:53:06.112Z,5.27
2022-12-11T19:55:34.063Z,5.26
2022-12-11T19:58:01.923Z,5.27
2022-12-11T20:00:29.945Z,5.28
2022-12-11T20:02:59.296Z,5.27
2022-12-11T20:05:27.359Z,5.28
2022-12-11T20:07:55.308Z,5.24
2022-12-11T20:10:23.313Z,5.22
2022-12-11T20:12:52.545Z,5.20
2022-12-11T20:15:20.543Z,5.16
2022-12-11T20:17:48.399Z,5.14
2022-12-11T20:20:17.730Z,5.14
2022-12-11T20:22:45.724Z,5.16
2022-12-11T20:25:13.776Z,5.16
2022-12-11T20:27:41.924Z,5.18
2022-12-11T20:30:10.848Z,5.18
2022-12-11T20:32:39.068Z,5.21
2022-12-11T20:35:08.525Z,5.15
2022-12-11T20:37:38.435Z,5.14
2022-12-11T20:40:07.379Z,5.07
2022-12-11T20:42:35.498Z,5.03
2022-12-11T20:45:03.452Z,4.97
2022-12-11T20:47:31.360Z,4.95
2022-12-11T20:49:59.362Z,4.95
2022-12-11T20:52:28.072Z,4.94
2022-12-11T20:54:57.374Z,4.86
2022-12-11T20:57:25.304Z,4.81
2022-12-11T20:59:53.251Z,4.79
2022-12-11T21:02:21.246Z,4.76
2022-12-11T21:04:49.238Z,4.70
2022-12-11T21:07:17.505Z,4.66
2022-12-11T21:09:45.482Z,4.66
2022-12-11T21:12:14.771Z,4.62
2022-12-11T21:14:42.836Z,4.63
2022-12-11T21:17:10.789Z,4.63
2022-12-11T21:19:38.741Z,4.65
2022-12-11T21:22:06.784Z,4.64
2022-12-11T21:24:34.755Z,4.63
2022-12-11T21:27:02.618Z,4.64
2022-12-11T21:29:31.971Z,4.60
2022-12-11T21:32:00.354Z,4.63
2022-12-11T21:34:28.538Z,4.67
2022-12-11T21:36:56.676Z,4.71
2022-12-11T21:39:25.526Z,4.70
2022-12-11T21:41:53.487Z,4.66
2022-12-11T21:47:11.260Z,4.63
2022-12-11T21:49:39.330Z,4.62
2022-12-11T21:52:08.399Z,4.60
2022-12-11T21:54:36.805Z,4.64
2022-12-11T21:57:04.888Z,4.62
2022-12-11T21:59:33.553Z,4.62
2022-12-11T22:02:01.550Z,4.64
2022-12-11T22:04:30.924Z,4.66
2022-12-11T22:06:58.939Z,4.68
2022-12-11T22:09:27.323Z,4.69
2022-12-11T22:11:58.825Z,4.70
2022-12-11T22:14:27.265Z,4.69
2022-12-11T22:16:55.353Z,4.67
2022-12-11T22:19:25.588Z,4.67
2022-12-11T22:21:58.471Z,4.66
2022-12-11T22:24:26.445Z,4.69
2022-12-11T22:26:54.609Z,4.71
2022-12-11T22:29:22.555Z,4.70
2022-12-11T22:31:50.459Z,4.70
2022-12-11T22:34:18.366Z,4.72
2022-12-11T22:36:46.344Z,4.75
2022-12-11T22:39:15.864Z,4.79
2022-12-11T22:41:43.779Z,4.79
2022-12-11T22:44:15.564Z,4.73
2022-12-11T22:46:48.336Z,4.77
2022-12-11T22:49:18.138Z,4.75
2022-12-11T22:51:46.039Z,4.72
2022-12-11T22:54:15.499Z,4.64
2022-12-11T22:56:43.498Z,4.61
2022-12-11T22:59:11.480Z,4.58
2022-12-11T23:01:39.408Z,4.54
2022-12-11T23:04:07.552Z,4.47
2022-12-11T23:06:35.547Z,4.41
2022-12-11T23:09:03.920Z,4.37
2022-12-11T23:11:36.418Z,4.38
2022-12-11T23:14:05.469Z,4.40
2022-12-11T23:16:33.794Z,4.41
2022-12-11T23:19:02.219Z,4.42
2022-12-11T23:21:30.825Z,4.41
2022-12-11T23:23:59.540Z,4.40
2022-12-11T23:26:28.454Z,4.40
2022-12-11T23:28:59.533Z,4.39
2022-12-11T23:31:28.250Z,4.37
2022-12-11T23:33:56.213Z,4.33
2022-12-11T23:36:25.338Z,4.33
2022-12-11T23:38:54.933Z,4.32
2022-12-11T23:41:23.207Z,4.33
2022-12-11T23:43:51.205Z,4.29
2022-12-11T23:46:22.701Z,4.22
2022-12-11T23:48:50.985Z,4.20
2022-12-11T23:51:20.811Z,4.14
2022-12-11T23:53:49.395Z,4.11
2022-12-11T23:56:21.599Z,4.10
2022-12-11T23:58:50.035Z,4.12
